createdAt,value
2018-02-16T00:00:00.002Z,99.99
2018-02-16T00:01:00.027Z,99.99
2018-02-16T00:01:59.998Z,99.99
2018-02-16T00:03:00.007Z,99.99
2018-02-16T00:04:00.019Z,99.99
2018-02-16T00:05:21.023Z,99.99
2018-02-16T00:05:59.997Z,99.99
2018-02-16T00:07:00.013Z,99.99
2018-02-16T00:07:59.989Z,99.99
2018-02-16T00:08:59.990Z,99.99
2018-02-16T00:09:59.990Z,99.99
2018-02-16T00:11:20.991Z,99.99
2018-02-16T00:12:00.120Z,99.99
2018-02-16T00:13:00.007Z,99.99
2018-02-16T00:13:59.990Z,99.99
2018-02-16T00:14:59.983Z,99.99
2018-02-16T00:15:59.985Z,99.99
2018-02-16T00:17:20.980Z,99.99
2018-02-16T00:17:59.976Z,99.99
2018-02-16T00:18:59.993Z,99.99
2018-02-16T00:19:59.979Z,99.99
2018-02-16T00:20:59.969Z,99.99
2018-02-16T00:21:59.964Z,99.99
2018-02-16T00:23:20.980Z,99.99
2018-02-16T00:23:59.982Z,99.99
2018-02-16T00:24:59.996Z,99.99
2018-02-16T00:25:59.961Z,99.99
2018-02-16T00:26:59.957Z,99.99
2018-02-16T00:27:59.988Z,99.99
2018-02-16T00:29:21.095Z,99.99
2018-02-16T00:29:59.951Z,99.99
2018-02-16T00:30:59.951Z,99.99
2018-02-16T00:31:59.948Z,99.99
2018-02-16T00:33:00.044Z,99.99
2018-02-16T00:33:59.972Z,99.99
2018-02-16T00:35:20.952Z,99.99
2018-02-16T00:35:59.957Z,99.99
2018-02-16T00:36:59.947Z,99.99
2018-02-16T00:38:00.831Z,99.99
2018-02-16T00:38:59.954Z,99.99
2018-02-16T00:39:59.941Z,99.99
2018-02-16T00:41:20.949Z,99.99
2018-02-16T00:41:59.953Z,99.99
2018-02-16T00:42:59.930Z,99.99
2018-02-16T00:43:59.948Z,99.99
2018-02-16T00:44:59.930Z,99.99
2018-02-16T00:45:59.929Z,99.99
2018-02-16T00:47:20.940Z,99.99
2018-02-16T00:47:59.920Z,99.99
2018-02-16T00:48:59.919Z,99.99
2018-02-16T00:49:59.925Z,99.99
2018-02-16T00:50:59.917Z,99.99
2018-02-16T00:51:59.925Z,99.99
2018-02-16T00:53:20.925Z,99.99
2018-02-16T00:53:59.939Z,99.99
2018-02-16T00:54:59.899Z,99.99
2018-02-16T00:55:59.899Z,99.99
2018-02-16T00:56:59.904Z,99.99
2018-02-16T00:57:59.906Z,99.99
2018-02-16T00:59:20.915Z,99.99
2018-02-16T00:59:59.908Z,99.99
2018-02-16T01:00:59.893Z,99.99
2018-02-16T01:01:59.891Z,99.99
2018-02-16T01:02:59.892Z,99.99
2018-02-16T01:03:59.897Z,99.99
2018-02-16T01:05:20.909Z,99.99
2018-02-16T01:05:59.885Z,99.99
2018-02-16T01:06:59.887Z,99.99
2018-02-16T01:07:59.883Z,99.99
2018-02-16T01:08:59.919Z,99.99
2018-02-16T01:09:59.887Z,99.99
2018-02-16T01:11:20.890Z,99.99
2018-02-16T01:11:59.951Z,99.99
2018-02-16T01:12:59.872Z,99.99
2018-02-16T01:13:59.870Z,99.99
2018-02-16T01:14:59.867Z,99.99
2018-02-16T01:15:59.879Z,99.99
2018-02-16T01:17:20.877Z,99.99
2018-02-16T01:17:59.870Z,99.99
2018-02-16T01:18:59.858Z,99.99
2018-02-16T01:19:59.855Z,99.99
2018-02-16T01:20:59.869Z,99.99
2018-02-16T01:21:59.868Z,99.99
2018-02-16T01:23:20.856Z,99.99
2018-02-16T01:23:59.865Z,99.99
2018-02-16T01:24:59.957Z,99.99
2018-02-16T01:25:59.852Z,99.99
2018-02-16T01:26:59.847Z,99.99
2018-02-16T01:27:59.851Z,99.99
2018-02-16T01:29:20.874Z,99.99
2018-02-16T01:29:59.848Z,99.99
2018-02-16T01:30:59.843Z,99.99
2018-02-16T01:31:59.837Z,99.99
2018-02-16T01:32:59.834Z,99.99
2018-02-16T01:33:59.926Z,99.99
2018-02-16T01:35:20.846Z,99.99
2018-02-16T01:35:59.833Z,99.99
2018-02-16T01:36:59.849Z,99.99
2018-02-16T01:37:59.873Z,99.99
2018-02-16T01:38:59.814Z,99.99
2018-02-16T01:39:59.819Z,99.99
2018-02-16T01:41:20.809Z,99.99
2018-02-16T01:41:59.820Z,99.99
2018-02-16T01:42:59.826Z,99.99
2018-02-16T01:43:59.811Z,99.99
2018-02-16T01:44:59.800Z,99.99
2018-02-16T01:45:59.831Z,99.99
2018-02-16T01:47:20.923Z,99.99
2018-02-16T01:47:59.803Z,99.99
2018-02-16T01:48:59.797Z,99.99
2018-02-16T01:49:59.804Z,99.99
2018-02-16T01:50:59.795Z,99.99
2018-02-16T01:51:59.786Z,99.99
2018-02-16T01:53:20.798Z,99.99
2018-02-16T01:53:59.796Z,99.99
2018-02-16T01:54:59.792Z,99.99
2018-02-16T01:55:59.829Z,99.99
2018-02-16T01:56:59.780Z,99.99
2018-02-16T01:57:59.787Z,99.99
2018-02-16T01:59:20.787Z,99.99
2018-02-16T01:59:59.771Z,99.99
2018-02-16T02:00:59.773Z,99.99
2018-02-16T02:01:59.769Z,99.99
2018-02-16T02:02:59.768Z,99.99
2018-02-16T02:03:59.761Z,99.99
2018-02-16T02:05:20.777Z,99.99
2018-02-16T02:05:59.761Z,99.99
2018-02-16T02:06:59.752Z,99.99
2018-02-16T02:07:59.765Z,99.99
2018-02-16T02:08:59.762Z,99.99
2018-02-16T02:09:59.766Z,99.99
2018-02-16T02:11:20.770Z,99.99
2018-02-16T02:11:59.750Z,99.99
2018-02-16T02:12:59.746Z,99.99
2018-02-16T02:13:59.729Z,99.99
2018-02-16T02:14:59.733Z,99.99
2018-02-16T02:15:59.739Z,99.99
2018-02-16T02:17:20.735Z,99.99
2018-02-16T02:17:59.811Z,99.99
2018-02-16T02:18:59.724Z,99.99
2018-02-16T02:19:59.727Z,99.99
2018-02-16T02:20:59.739Z,99.99
2018-02-16T02:21:59.807Z,99.99
2018-02-16T02:23:20.723Z,99.99
2018-02-16T02:23:59.727Z,99.99
2018-02-16T02:24:59.723Z,99.99
2018-02-16T02:25:59.714Z,99.99
2018-02-16T02:26:59.709Z,99.99
2018-02-16T02:27:59.705Z,99.99
2018-02-16T02:29:20.716Z,99.99
2018-02-16T02:29:59.709Z,99.99
2018-02-16T02:30:59.783Z,99.99
2018-02-16T02:31:59.709Z,99.99
2018-02-16T02:32:59.698Z,99.99
2018-02-16T02:33:59.688Z,99.99
2018-02-16T02:35:20.801Z,99.99
2018-02-16T02:35:59.684Z,99.99
2018-02-16T02:36:59.698Z,99.99
2018-02-16T02:37:59.679Z,99.99
2018-02-16T02:38:59.694Z,99.99
2018-02-16T02:39:59.714Z,99.99
2018-02-16T02:41:20.679Z,99.99
2018-02-16T02:41:59.671Z,99.99
2018-02-16T02:42:59.685Z,99.99
2018-02-16T02:43:59.671Z,99.99
2018-02-16T02:44:59.679Z,99.99
2018-02-16T02:45:59.666Z,99.99
2018-02-16T02:47:20.669Z,99.99
2018-02-16T02:47:59.666Z,99.99
2018-02-16T02:48:59.657Z,99.99
2018-02-16T02:49:59.671Z,99.99
2018-02-16T02:50:59.669Z,99.99
2018-02-16T02:51:59.661Z,99.99
2018-02-16T02:53:20.653Z,99.99
2018-02-16T02:53:59.654Z,99.99
2018-02-16T02:54:59.641Z,99.99
2018-02-16T02:55:59.647Z,99.99
2018-02-16T02:56:59.633Z,99.99
2018-02-16T02:57:59.638Z,99.99
2018-02-16T02:59:20.667Z,99.99
2018-02-16T02:59:59.628Z,99.99
2018-02-16T03:00:59.632Z,99.99
2018-02-16T03:01:59.629Z,99.99
2018-02-16T03:02:59.623Z,99.99
2018-02-16T03:03:59.627Z,99.99
2018-02-16T03:05:20.626Z,99.99
2018-02-16T03:05:59.617Z,99.99
2018-02-16T03:06:59.621Z,99.99
2018-02-16T03:07:59.615Z,99.99
2018-02-16T03:08:59.615Z,99.99
2018-02-16T03:09:59.615Z,99.99
2018-02-16T03:11:20.607Z,99.99
2018-02-16T03:11:59.613Z,99.99
2018-02-16T03:12:59.597Z,99.99
2018-02-16T03:13:59.661Z,99.99
2018-02-16T03:14:59.629Z,99.99
2018-02-16T03:15:59.684Z,99.99
2018-02-16T03:17:20.605Z,99.99
2018-02-16T03:17:59.589Z,99.99
2018-02-16T03:18:59.613Z,99.99
2018-02-16T03:19:59.593Z,99.99
2018-02-16T03:20:59.590Z,99.99
2018-02-16T03:21:59.578Z,99.99
2018-02-16T03:23:20.590Z,99.99
2018-02-16T03:23:59.585Z,99.99
2018-02-16T03:24:59.591Z,99.99
2018-02-16T03:25:59.565Z,99.99
2018-02-16T03:26:59.569Z,99.99
2018-02-16T03:27:59.612Z,99.99
2018-02-16T03:29:20.568Z,99.99
2018-02-16T03:29:59.558Z,99.99
2018-02-16T03:30:59.551Z,99.99
2018-02-16T03:31:59.555Z,99.99
2018-02-16T03:32:59.545Z,99.99
2018-02-16T03:33:59.566Z,99.99
2018-02-16T03:35:20.560Z,99.99
2018-02-16T03:35:59.635Z,99.99
2018-02-16T03:36:59.550Z,99.99
2018-02-16T03:37:59.525Z,99.99
2018-02-16T03:38:59.542Z,99.99
2018-02-16T03:39:59.531Z,99.99
2018-02-16T03:41:20.563Z,99.99
2018-02-16T03:41:59.524Z,99.99
2018-02-16T03:42:59.523Z,99.99
2018-02-16T03:43:59.520Z,99.99
2018-02-16T03:44:59.514Z,99.99
2018-02-16T03:45:59.520Z,99.99
2018-02-16T03:47:20.531Z,99.99
2018-02-16T03:47:59.534Z,99.99
2018-02-16T03:48:59.509Z,99.99
2018-02-16T03:49:59.520Z,99.99
2018-02-16T03:50:59.543Z,99.99
2018-02-16T03:51:59.517Z,99.99
2018-02-16T03:53:20.514Z,99.99
2018-02-16T03:53:59.500Z,99.99
2018-02-16T03:54:59.503Z,99.99
2018-02-16T03:55:59.493Z,99.99
2018-02-16T03:56:59.482Z,99.99
2018-02-16T03:57:59.495Z,99.99
2018-02-16T03:59:20.490Z,99.99
2018-02-16T03:59:59.504Z,99.99
2018-02-16T04:00:59.477Z,99.99
2018-02-16T04:01:59.466Z,99.99
2018-02-16T04:02:59.475Z,99.99
2018-02-16T04:03:59.477Z,99.99
2018-02-16T04:05:20.472Z,99.99
2018-02-16T04:05:59.463Z,99.99
2018-02-16T04:06:59.449Z,99.99
2018-02-16T04:07:59.448Z,99.99
2018-02-16T04:08:59.447Z,99.99
2018-02-16T04:09:59.469Z,99.99
2018-02-16T04:11:20.456Z,99.99
2018-02-16T04:11:59.472Z,99.99
2018-02-16T04:12:59.437Z,99.99
2018-02-16T04:13:59.441Z,99.99
2018-02-16T04:14:59.435Z,99.99
2018-02-16T04:15:59.453Z,99.99
2018-02-16T04:17:20.442Z,99.99
2018-02-16T04:17:59.431Z,99.99
2018-02-16T04:18:59.425Z,99.99
2018-02-16T04:19:59.440Z,99.99
2018-02-16T04:20:59.419Z,99.99
2018-02-16T04:21:59.432Z,99.99
2018-02-16T04:23:20.418Z,99.99
2018-02-16T04:23:59.435Z,99.99
2018-02-16T04:24:59.404Z,99.99
2018-02-16T04:25:59.467Z,99.99
2018-02-16T04:26:59.411Z,99.99
2018-02-16T04:27:59.405Z,99.99
2018-02-16T04:29:20.412Z,99.99
2018-02-16T04:29:59.408Z,99.99
2018-02-16T04:30:59.386Z,99.99
2018-02-16T04:31:59.419Z,99.99
2018-02-16T04:32:59.390Z,99.99
2018-02-16T04:33:59.537Z,99.99
2018-02-16T04:35:20.492Z,99.99
2018-02-16T04:35:59.384Z,99.99
2018-02-16T04:36:59.486Z,99.99
2018-02-16T04:37:59.382Z,99.99
2018-02-16T04:38:59.370Z,99.99
2018-02-16T04:39:59.373Z,99.99
2018-02-16T04:41:20.427Z,99.99
2018-02-16T04:41:59.362Z,99.99
2018-02-16T04:42:59.362Z,99.99
2018-02-16T04:43:59.361Z,99.99
2018-02-16T04:44:59.405Z,99.99
2018-02-16T04:45:59.358Z,99.99
2018-02-16T04:47:20.344Z,99.99
2018-02-16T04:47:59.352Z,99.99
2018-02-16T04:48:59.338Z,99.99
2018-02-16T04:49:59.875Z,99.99
2018-02-16T04:50:59.342Z,99.99
2018-02-16T04:51:59.365Z,99.99
2018-02-16T04:53:20.340Z,99.99
2018-02-16T04:53:59.326Z,99.99
2018-02-16T04:54:59.332Z,99.99
2018-02-16T04:55:59.326Z,99.99
2018-02-16T04:56:59.317Z,99.99
2018-02-16T04:57:59.327Z,99.99
2018-02-16T04:59:20.334Z,99.99
2018-02-16T04:59:59.325Z,99.99
2018-02-16T05:00:59.302Z,99.99
2018-02-16T05:01:59.314Z,99.99
2018-02-16T05:02:59.300Z,99.99
2018-02-16T05:03:59.320Z,99.99
2018-02-16T05:05:20.315Z,99.99
2018-02-16T05:05:59.318Z,99.99
2018-02-16T05:06:59.304Z,99.99
2018-02-16T05:07:59.287Z,99.99
2018-02-16T05:08:59.286Z,99.99
2018-02-16T05:09:59.278Z,99.99
2018-02-16T05:11:20.293Z,99.99
2018-02-16T05:11:59.291Z,99.99
2018-02-16T05:12:59.386Z,99.99
2018-02-16T05:13:59.277Z,99.99
2018-02-16T05:14:59.278Z,99.99
2018-02-16T05:15:59.275Z,99.99
2018-02-16T05:17:20.293Z,99.99
2018-02-16T05:17:59.262Z,99.99
2018-02-16T05:18:59.274Z,99.99
2018-02-16T05:19:59.249Z,99.99
2018-02-16T05:20:59.248Z,99.99
2018-02-16T05:21:59.256Z,99.99
2018-02-16T05:23:20.263Z,99.99
2018-02-16T05:23:59.243Z,99.99
2018-02-16T05:24:59.229Z,99.99
2018-02-16T05:25:59.241Z,99.99
2018-02-16T05:26:59.263Z,99.99
2018-02-16T05:27:59.241Z,99.99
2018-02-16T05:29:20.225Z,99.99
2018-02-16T05:29:59.738Z,99.99
2018-02-16T05:30:59.483Z,99.99
2018-02-16T05:31:59.233Z,99.99
2018-02-16T05:32:59.217Z,99.99
2018-02-16T05:33:59.336Z,99.99
2018-02-16T05:35:20.218Z,99.99
2018-02-16T05:35:59.246Z,99.99
2018-02-16T05:36:59.207Z,99.99
2018-02-16T05:37:59.306Z,99.99
2018-02-16T05:38:59.214Z,99.99
2018-02-16T05:39:59.204Z,99.99
2018-02-16T05:41:20.208Z,99.99
2018-02-16T05:41:59.190Z,99.99
2018-02-16T05:42:59.198Z,99.99
2018-02-16T05:43:59.674Z,99.99
2018-02-16T05:44:59.195Z,99.99
2018-02-16T05:45:59.177Z,99.99
2018-02-16T05:47:20.191Z,99.99
2018-02-16T05:47:59.184Z,99.99
2018-02-16T05:48:59.169Z,99.99
2018-02-16T05:49:59.172Z,99.99
2018-02-16T05:50:59.168Z,99.99
2018-02-16T05:51:59.160Z,99.99
2018-02-16T05:53:20.176Z,99.99
2018-02-16T05:53:59.272Z,99.99
2018-02-16T05:54:59.155Z,99.99
2018-02-16T05:55:59.153Z,99.99
2018-02-16T05:56:59.147Z,99.99
2018-02-16T05:57:59.151Z,99.99
2018-02-16T05:59:20.168Z,99.99
2018-02-16T05:59:59.886Z,99.99
2018-02-16T06:00:59.151Z,99.99
2018-02-16T06:01:59.132Z,99.99
2018-02-16T06:02:59.403Z,99.99
2018-02-16T06:03:59.134Z,99.99
2018-02-16T06:05:20.141Z,99.99
2018-02-16T06:05:59.124Z,99.99
2018-02-16T06:06:59.225Z,99.99
2018-02-16T06:07:59.125Z,99.99
2018-02-16T06:08:59.115Z,99.99
2018-02-16T06:09:59.110Z,99.99
2018-02-16T06:11:20.125Z,99.99
2018-02-16T06:11:59.138Z,99.99
2018-02-16T06:12:59.117Z,99.99
2018-02-16T06:13:59.097Z,99.99
2018-02-16T06:14:59.118Z,99.99
2018-02-16T06:15:59.136Z,99.99
2018-02-16T06:17:20.090Z,99.99
2018-02-16T06:17:59.131Z,99.99
2018-02-16T06:18:59.188Z,99.99
2018-02-16T06:19:59.084Z,99.99
2018-02-16T06:20:59.133Z,99.99
2018-02-16T06:21:59.718Z,99.99
2018-02-16T06:23:20.086Z,99.99
2018-02-16T06:23:59.077Z,99.99
2018-02-16T06:24:59.072Z,99.99
2018-02-16T06:25:59.086Z,99.99
2018-02-16T06:26:59.530Z,99.99
2018-02-16T06:27:59.060Z,99.99
2018-02-16T06:29:20.082Z,99.99
2018-02-16T06:29:59.057Z,99.99
2018-02-16T06:30:59.120Z,99.99
2018-02-16T06:31:59.068Z,99.99
2018-02-16T06:32:59.066Z,99.99
2018-02-16T06:33:59.239Z,99.99
2018-02-16T06:35:20.057Z,99.99
2018-02-16T06:35:59.054Z,99.99
2018-02-16T06:36:59.038Z,99.99
2018-02-16T06:37:59.024Z,99.99
2018-02-16T06:38:59.243Z,99.99
2018-02-16T06:39:59.156Z,99.99
2018-02-16T06:41:20.045Z,99.99
2018-02-16T06:41:59.025Z,99.99
2018-02-16T06:42:59.031Z,99.99
2018-02-16T06:43:59.022Z,99.99
2018-02-16T06:44:59.010Z,99.99
2018-02-16T06:45:59.040Z,99.99
2018-02-16T06:47:20.890Z,99.99
2018-02-16T06:47:59.034Z,99.99
2018-02-16T06:48:59.031Z,99.99
2018-02-16T06:49:59.886Z,99.99
2018-02-16T06:50:58.994Z,99.99
2018-02-16T06:51:58.994Z,99.99
2018-02-16T06:53:20.003Z,99.99
2018-02-16T06:53:58.982Z,99.99
2018-02-16T06:54:58.990Z,99.99
2018-02-16T06:55:59.491Z,99.99
2018-02-16T06:56:58.988Z,99.99
2018-02-16T06:57:58.973Z,99.99
2018-02-16T06:59:19.986Z,99.99
2018-02-16T06:59:59.134Z,99.99
2018-02-16T07:00:58.975Z,99.99
2018-02-16T07:01:58.972Z,99.99
2018-02-16T07:02:58.969Z,99.99
2018-02-16T07:03:58.963Z,99.99
2018-02-16T07:05:19.983Z,99.99
2018-02-16T07:05:59.004Z,99.99
2018-02-16T07:06:58.954Z,99.99
2018-02-16T07:07:58.971Z,99.99
2018-02-16T07:08:58.958Z,99.99
2018-02-16T07:09:58.949Z,99.99
2018-02-16T07:11:19.956Z,99.99
2018-02-16T07:11:58.941Z,99.99
2018-02-16T07:12:58.939Z,99.99
2018-02-16T07:13:58.935Z,99.99
2018-02-16T07:14:58.935Z,99.99
2018-02-16T07:15:58.942Z,99.99
2018-02-16T07:17:19.940Z,99.99
2018-02-16T07:17:58.930Z,99.99
2018-02-16T07:18:58.927Z,99.99
2018-02-16T07:19:58.925Z,99.99
2018-02-16T07:20:58.939Z,99.99
2018-02-16T07:21:58.920Z,99.99
2018-02-16T07:23:19.929Z,99.99
2018-02-16T07:23:58.928Z,99.99
2018-02-16T07:24:58.907Z,99.99
2018-02-16T07:25:58.916Z,99.99
2018-02-16T07:26:58.906Z,99.99
2018-02-16T07:27:58.901Z,99.99
2018-02-16T07:29:19.922Z,99.99
2018-02-16T07:29:58.905Z,99.99
2018-02-16T07:30:58.942Z,99.99
2018-02-16T07:31:58.911Z,99.99
2018-02-16T07:32:58.917Z,99.99
2018-02-16T07:33:58.933Z,99.99
2018-02-16T07:35:19.884Z,99.99
2018-02-16T07:35:58.878Z,99.99
2018-02-16T07:36:59.007Z,99.99
2018-02-16T07:37:58.938Z,99.99
2018-02-16T07:38:59.383Z,99.99
2018-02-16T07:39:58.902Z,99.99
2018-02-16T07:41:19.925Z,99.99
2018-02-16T07:41:58.866Z,99.99
2018-02-16T07:42:58.869Z,99.99
2018-02-16T07:43:58.853Z,99.99
2018-02-16T07:44:58.859Z,99.99
2018-02-16T07:45:58.886Z,99.99
2018-02-16T07:47:19.877Z,99.99
2018-02-16T07:47:58.858Z,99.99
2018-02-16T07:48:58.848Z,99.99
2018-02-16T07:49:58.916Z,98.54
2018-02-16T07:50:58.840Z,97.36
2018-02-16T07:51:58.855Z,95.93
2018-02-16T07:53:19.858Z,95.84
2018-02-16T07:53:58.858Z,94.18
2018-02-16T07:54:58.842Z,92.42
2018-02-16T07:55:58.849Z,90.47
2018-02-16T07:56:58.838Z,90.57
2018-02-16T07:57:58.845Z,89.57
2018-02-16T07:59:19.908Z,88.19
2018-02-16T07:59:58.845Z,86.57
2018-02-16T08:00:58.890Z,86.86
2018-02-16T08:01:58.858Z,87.05
2018-02-16T08:02:58.824Z,87.67
2018-02-16T08:03:58.868Z,87.76
2018-02-16T08:05:19.877Z,88.38
2018-02-16T08:05:58.873Z,85.76
2018-02-16T08:06:58.864Z,84.81
2018-02-16T08:07:58.932Z,83.58
2018-02-16T08:08:58.866Z,82.48
2018-02-16T08:09:58.907Z,82.57
2018-02-16T08:11:19.842Z,82.00
2018-02-16T08:11:58.850Z,80.66
2018-02-16T08:13:00.350Z,80.76
2018-02-16T08:13:58.911Z,80.76
2018-02-16T08:14:58.839Z,81.05
2018-02-16T08:15:58.823Z,80.42
2018-02-16T08:17:19.844Z,79.19
2018-02-16T08:17:58.840Z,79.19
2018-02-16T08:18:58.847Z,78.52
2018-02-16T08:19:58.855Z,78.67
2018-02-16T08:20:58.995Z,79.81
2018-02-16T08:21:58.845Z,79.62
2018-02-16T08:23:19.850Z,79.66
2018-02-16T08:23:58.899Z,79.66
2018-02-16T08:24:58.843Z,78.71
2018-02-16T08:25:58.868Z,79.28
2018-02-16T08:26:58.853Z,79.66
2018-02-16T08:27:58.921Z,79.19
2018-02-16T08:29:19.936Z,77.70
2018-02-16T08:29:58.839Z,78.33
2018-02-16T08:31:00.595Z,78.04
2018-02-16T08:31:59.867Z,78.80
2018-02-16T08:33:00.358Z,77.98
2018-02-16T08:33:59.128Z,77.76
2018-02-16T08:35:21.667Z,76.75
2018-02-16T08:36:20.671Z,77.61
2018-02-16T08:37:02.932Z,76.56
2018-02-16T08:37:59.429Z,76.71
2018-02-16T08:38:59.369Z,77.22
2018-02-16T08:40:20.905Z,77.09
2018-02-16T08:41:02.486Z,76.37
2018-02-16T08:41:59.585Z,76.56
2018-02-16T08:43:00.474Z,77.42
2018-02-16T08:43:59.251Z,77.61
2018-02-16T08:46:50.762Z,76.31
2018-02-16T08:47:36.516Z,76.21
2018-02-16T08:48:37.827Z,75.07
2018-02-16T08:49:35.714Z,75.84
2018-02-16T08:50:35.720Z,74.69
2018-02-16T08:51:36.167Z,75.36
2018-02-16T08:52:35.750Z,74.88
2018-02-16T08:53:36.526Z,74.06
2018-02-16T08:54:37.269Z,73.93
2018-02-16T08:55:36.108Z,74.60
2018-02-16T08:56:37.020Z,74.69
2018-02-16T08:57:37.325Z,74.35
2018-02-16T08:58:36.844Z,73.74
2018-02-16T08:59:47.397Z,73.93
2018-02-16T09:00:36.940Z,75.26
2018-02-16T09:01:35.961Z,74.44
2018-02-16T09:02:36.009Z,74.25
2018-02-16T09:03:35.762Z,72.28
2018-02-16T09:04:36.430Z,72.82
2018-02-16T09:05:36.761Z,73.24
2018-02-16T09:06:38.577Z,73.52
2018-02-16T09:07:35.493Z,72.53
2018-02-16T09:08:35.602Z,73.87
2018-02-16T09:09:38.444Z,71.94
2018-02-16T09:10:36.019Z,71.11
2018-02-16T09:11:35.721Z,73.11
2018-02-16T09:12:36.986Z,72.16
2018-02-16T09:13:38.076Z,72.76
2018-02-16T09:14:51.097Z,73.32
2018-02-16T09:15:35.636Z,75.84
2018-02-16T09:16:47.796Z,74.63
2018-02-16T09:17:35.889Z,75.68
2018-02-16T09:18:37.720Z,76.37
2018-02-16T09:19:36.638Z,77.81
2018-02-16T09:20:38.075Z,80.23
2018-02-16T09:21:37.895Z,78.37
2018-02-16T09:22:39.909Z,80.47
2018-02-16T09:23:36.361Z,83.67
2018-02-16T09:24:36.678Z,82.37
2018-02-16T09:25:37.812Z,79.03
2018-02-16T09:27:40.218Z,79.74
2018-02-16T09:28:37.326Z,75.72
2018-02-16T09:29:38.078Z,73.21
2018-02-16T09:30:35.702Z,75.74
2018-02-16T09:31:40.244Z,75.91
2018-02-16T09:32:36.489Z,75.45
2018-02-16T09:33:57.133Z,77.26
2018-02-16T09:34:35.627Z,78.41
2018-02-16T09:35:35.834Z,75.78
2018-02-16T09:36:36.186Z,75.51
2018-02-16T09:37:35.645Z,77.17
2018-02-16T09:38:35.687Z,76.69
2018-02-16T09:39:56.684Z,76.75
2018-02-16T09:40:35.859Z,77.42
2018-02-16T09:41:37.313Z,79.89
2018-02-16T09:42:36.812Z,79.22
2018-02-16T09:43:37.157Z,80.42
2018-02-16T09:44:35.706Z,82.27
2018-02-16T09:45:56.720Z,81.65
2018-02-16T09:46:35.702Z,78.16
2018-02-16T09:47:36.220Z,77.61
2018-02-16T09:48:35.705Z,78.50
2018-02-16T09:49:36.725Z,78.31
2018-02-16T09:50:35.817Z,76.44
2018-02-16T09:51:57.359Z,78.33
2018-02-16T09:52:35.729Z,81.85
2018-02-16T09:53:36.668Z,83.14
2018-02-16T09:54:35.743Z,85.00
2018-02-16T09:55:36.070Z,85.08
2018-02-16T09:56:35.737Z,82.95
2018-02-16T09:57:56.903Z,83.81
2018-02-16T09:58:36.336Z,86.18
2018-02-16T09:59:35.827Z,83.56
2018-02-16T10:00:35.767Z,81.51
2018-02-16T10:01:35.848Z,82.80
2018-02-16T10:02:35.851Z,84.85
2018-02-16T10:03:57.942Z,85.04
2018-02-16T10:04:35.771Z,85.38
2018-02-16T10:05:35.753Z,85.18
2018-02-16T10:06:35.884Z,83.47
2018-02-16T10:07:35.892Z,80.65
2018-02-16T10:08:36.966Z,80.99
2018-02-16T10:09:56.832Z,82.48
2018-02-16T10:10:35.811Z,85.19
2018-02-16T10:11:35.821Z,88.61
2018-02-16T10:12:35.846Z,86.32
2018-02-16T10:13:35.824Z,83.42
2018-02-16T10:14:35.923Z,83.23
2018-02-16T10:15:57.161Z,84.66
2018-02-16T10:16:35.949Z,85.57
2018-02-16T10:17:35.853Z,87.38
2018-02-16T10:18:35.836Z,88.23
2018-02-16T10:19:36.169Z,88.09
2018-02-16T10:20:35.837Z,85.13
2018-02-16T10:21:57.264Z,82.37
2018-02-16T10:22:35.833Z,79.55
2018-02-16T10:23:36.788Z,79.07
2018-02-16T10:24:35.845Z,76.57
2018-02-16T10:25:35.872Z,75.95
2018-02-16T10:26:36.858Z,74.57
2018-02-16T10:27:56.909Z,73.91
2018-02-16T10:28:35.928Z,75.28
2018-02-16T10:29:35.881Z,74.16
2018-02-16T10:30:37.790Z,75.36
2018-02-16T10:31:35.890Z,80.52
2018-02-16T10:32:35.891Z,81.13
2018-02-16T10:33:57.704Z,80.84
2018-02-16T10:34:35.889Z,81.89
2018-02-16T10:35:35.891Z,79.51
2018-02-16T10:36:35.940Z,80.46
2018-02-16T10:37:35.884Z,81.60
2018-02-16T10:38:36.748Z,79.57
2018-02-16T10:39:56.936Z,82.05
2018-02-16T10:40:36.730Z,85.47
2018-02-16T10:41:36.029Z,84.76
2018-02-16T10:42:36.031Z,86.33
2018-02-16T10:43:35.951Z,87.04
2018-02-16T10:44:35.987Z,83.71
2018-02-16T10:45:57.774Z,85.57
2018-02-16T10:46:35.984Z,85.76
2018-02-16T10:47:35.927Z,84.70
2018-02-16T10:48:35.928Z,83.52
2018-02-16T10:49:35.931Z,84.85
2018-02-16T10:50:35.943Z,83.32
2018-02-16T10:51:59.050Z,78.88
2018-02-16T10:52:35.976Z,79.70
2018-02-16T10:53:39.019Z,78.78
2018-02-16T10:54:36.858Z,76.39
2018-02-16T10:55:36.470Z,74.44
2018-02-16T10:56:36.084Z,74.38
2018-02-16T10:57:57.706Z,72.61
2018-02-16T10:58:36.844Z,73.01
2018-02-16T10:59:35.990Z,75.74
2018-02-16T11:00:36.094Z,75.87
2018-02-16T11:01:36.812Z,74.88
2018-02-16T11:02:35.980Z,76.25
2018-02-16T11:03:56.996Z,75.11
2018-02-16T11:04:36.409Z,74.82
2018-02-16T11:05:36.027Z,75.49
2018-02-16T11:06:36.753Z,75.34
2018-02-16T11:07:36.029Z,73.62
2018-02-16T11:08:36.758Z,72.57
2018-02-16T11:09:57.183Z,74.27
2018-02-16T11:10:36.711Z,78.90
2018-02-16T11:11:36.075Z,80.95
2018-02-16T11:12:36.030Z,82.23
2018-02-16T11:13:36.804Z,79.17
2018-02-16T11:14:36.148Z,76.82
2018-02-16T11:15:57.058Z,74.19
2018-02-16T11:16:36.078Z,72.23
2018-02-16T11:17:36.095Z,71.75
2018-02-16T11:18:36.052Z,72.28
2018-02-16T11:19:36.371Z,73.28
2018-02-16T11:20:36.183Z,72.00
2018-02-16T11:21:57.093Z,71.72
2018-02-16T11:22:36.494Z,74.75
2018-02-16T11:23:36.089Z,77.56
2018-02-16T11:24:36.093Z,80.23
2018-02-16T11:25:36.760Z,82.27
2018-02-16T11:26:36.268Z,82.46
2018-02-16T11:27:57.989Z,82.23
2018-02-16T11:28:36.133Z,82.61
2018-02-16T11:29:36.211Z,80.27
2018-02-16T11:30:36.243Z,79.60
2018-02-16T11:31:36.144Z,80.13
2018-02-16T11:32:36.141Z,81.95
2018-02-16T11:33:57.457Z,82.95
2018-02-16T11:34:36.296Z,84.09
2018-02-16T11:35:36.137Z,84.04
2018-02-16T11:36:36.158Z,78.92
2018-02-16T11:37:36.143Z,75.05
2018-02-16T11:38:36.253Z,71.08
2018-02-16T11:39:57.776Z,70.16
2018-02-16T11:40:36.172Z,68.82
2018-02-16T11:41:37.216Z,68.38
2018-02-16T11:42:36.172Z,66.66
2018-02-16T11:43:36.200Z,67.68
2018-02-16T11:44:36.246Z,68.41
2018-02-16T11:45:57.251Z,69.20
2018-02-16T11:46:36.215Z,72.19
2018-02-16T11:47:36.281Z,72.09
2018-02-16T11:48:36.793Z,71.46
2018-02-16T11:49:36.225Z,68.60
2018-02-16T11:50:36.264Z,67.93
2018-02-16T11:51:57.241Z,67.46
2018-02-16T11:52:36.554Z,68.41
2018-02-16T11:53:36.261Z,67.49
2018-02-16T11:54:36.234Z,68.12
2018-02-16T11:55:36.255Z,68.32
2018-02-16T11:56:36.247Z,67.68
2018-02-16T11:57:57.448Z,66.31
2018-02-16T11:58:36.317Z,66.41
2018-02-16T11:59:36.406Z,65.45
2018-02-16T12:00:36.271Z,65.10
2018-02-16T12:01:36.404Z,65.52
2018-02-16T12:02:36.286Z,66.56
2018-02-16T12:03:57.314Z,65.90
2018-02-16T12:04:36.330Z,64.98
2018-02-16T12:05:36.315Z,64.09
2018-02-16T12:06:36.339Z,65.10
2018-02-16T12:07:36.426Z,65.61
2018-02-16T12:08:58.864Z,64.94
2018-02-16T12:09:57.362Z,65.30
2018-02-16T12:10:36.385Z,68.09
2018-02-16T12:11:36.369Z,69.71
2018-02-16T12:12:36.367Z,69.62
2018-02-16T12:13:36.406Z,69.62
2018-02-16T12:14:36.387Z,68.57
2018-02-16T12:15:57.397Z,68.28
2018-02-16T12:16:36.416Z,70.15
2018-02-16T12:17:36.409Z,72.50
2018-02-16T12:18:37.701Z,73.93
2018-02-16T12:19:36.538Z,73.99
2018-02-16T12:20:36.432Z,74.79
2018-02-16T12:21:57.453Z,74.31
2018-02-16T12:22:36.448Z,74.31
2018-02-16T12:23:36.509Z,73.65
2018-02-16T12:24:40.565Z,73.74
2018-02-16T12:25:36.773Z,74.27
2018-02-16T12:26:37.054Z,76.27
2018-02-16T12:27:57.680Z,75.60
2018-02-16T12:28:36.941Z,75.13
2018-02-16T12:29:36.870Z,75.85
2018-02-16T12:30:36.506Z,75.57
2018-02-16T12:31:36.684Z,76.33
2018-02-16T12:32:36.660Z,76.37
2018-02-16T12:33:58.256Z,75.79
2018-02-16T12:34:36.610Z,75.60
2018-02-16T12:35:36.492Z,75.23
2018-02-16T12:36:36.495Z,74.94
2018-02-16T12:37:36.500Z,76.18
2018-02-16T12:38:36.513Z,75.89
2018-02-16T12:39:58.633Z,75.67
2018-02-16T12:40:36.764Z,76.33
2018-02-16T12:41:36.582Z,76.52
2018-02-16T12:42:37.285Z,76.61
2018-02-16T12:43:36.496Z,76.33
2018-02-16T12:44:36.495Z,75.19
2018-02-16T12:45:57.530Z,74.99
2018-02-16T12:46:36.518Z,75.24
2018-02-16T12:47:36.503Z,74.96
2018-02-16T12:48:36.526Z,76.10
2018-02-16T12:49:36.519Z,76.29
2018-02-16T12:50:36.552Z,76.25
2018-02-16T12:51:57.617Z,77.24
2018-02-16T12:52:36.627Z,77.05
2018-02-16T12:53:36.546Z,76.42
2018-02-16T12:54:36.615Z,75.76